Time;durP1;ratioP1;P1;durP2;ratioP2;P2;SDS_P1;SDS_P2;PMS_P1;PMS_P2;Temp;Humidity;BMP_temperature;BMP_pressure;BME280_temperature;BME280_humidity;BME280_pressure;Samples;Min_cycle;Max_cycle;Signal;HPM_P1;HPM_P2
2023/05/16 00:02:12;;;;;;;;;2.25;2.25;;;;;;;;4977420;28;45547;-71
2023/05/16 00:04:37;;;;;;;;;2.75;1.75;;;;;;;;4976928;28;45837;-71
2023/05/16 00:07:03;;;;;;;;;2.00;1.00;;;;;;;;4977646;28;45396;-71
2023/05/16 00:09:28;;;;;;;;;1.75;1.00;;;;;;;;4977036;28;45832;-71
2023/05/16 00:11:53;;;;;;;;;4.25;1.50;;;;;;;;4977464;28;45393;-71
2023/05/16 00:14:18;;;;;;;;;3.25;2.25;;;;;;;;4976864;28;45482;-71
2023/05/16 00:16:44;;;;;;;;;1.00;1.00;;;;;;;;4977146;28;45257;-72
2023/05/16 00:19:09;;;;;;;;;1.25;1.25;;;;;;;;4977568;28;45382;-71
2023/05/16 00:21:35;;;;;;;;;3.75;2.00;;;;;;;;4977091;28;45322;-71
2023/05/16 00:24:00;;;;;;;;;1.00;1.00;;;;;;;;4956998;28;46175;-71
2023/05/16 00:26:26;;;;;;;;;4.50;2.50;;;;;;;;4960852;28;45501;-71
2023/05/16 00:28:51;;;;;;;;;2.00;2.00;;;;;;;;4959898;28;45390;-71
2023/05/16 00:31:17;;;;;;;;;1.00;1.00;;;;;;;;4976851;28;45537;-71
2023/05/16 00:33:42;;;;;;;;;3.00;2.00;;;;;;;;4976820;28;46054;-71
2023/05/16 00:36:07;;;;;;;;;2.00;2.00;;;;;;;;4975497;28;45522;-71
2023/05/16 00:38:32;;;;;;;;;1.00;1.00;;;;;;;;4976844;28;45485;-71
2023/05/16 00:40:57;;;;;;;;;1.00;1.00;;;;;;;;4976921;28;45488;-71
2023/05/16 00:43:23;;;;;;;;;3.00;2.50;;;;;;;;4976968;28;45980;-72
2023/05/16 00:45:48;;;;;;;;;1.00;1.00;;;;;;;;4976800;28;45472;-71
2023/05/16 00:48:14;;;;;;;;;2.25;2.00;;;;;;;;4976371;28;45417;-71
2023/05/16 00:50:39;;;;;;;;;2.25;2.25;;;;;;;;4976566;28;45417;-71
2023/05/16 00:53:05;;;;;;;;;1.25;1.25;;;;;;;;4976125;28;45470;-70
2023/05/16 00:55:31;;;;;;;;;3.50;2.75;;;;;;;;4976785;28;45466;-69
2023/05/16 00:57:57;;;;;;;;;1.25;1.25;;;;;;;;4976847;28;45427;-70
2023/05/16 01:00:22;;;;;;;;;2.00;2.00;;;;;;;;4976665;28;45397;-71
2023/05/16 01:02:50;;;;;;;;;1.00;1.00;;;;;;;;4976246;28;45477;-71
2023/05/16 01:05:15;;;;;;;;;1.75;1.75;;;;;;;;4976375;28;45325;-71
2023/05/16 01:07:41;;;;;;;;;1.00;1.00;;;;;;;;4976344;28;45329;-71
2023/05/16 01:10:06;;;;;;;;;1.75;1.75;;;;;;;;4975246;28;45640;-71
2023/05/16 01:12:31;;;;;;;;;1.00;1.00;;;;;;;;4976354;28;46182;-71
2023/05/16 01:15:14;;;;;;;;;1.00;1.00;;;;;;;;4974889;28;45282;-71
2023/05/16 01:17:39;;;;;;;;;1.50;1.00;;;;;;;;4976274;28;45440;-71
2023/05/16 01:20:14;;;;;;;;;1.00;1.00;;;;;;;;4976171;28;45310;-72
2023/05/16 01:22:42;;;;;;;;;1.00;1.00;;;;;;;;4984162;28;45428;-71
2023/05/16 01:25:10;;;;;;;;;0.75;0.75;;;;;;;;4995282;28;45514;-71
2023/05/16 01:27:37;;;;;;;;;1.00;1.00;;;;;;;;4984233;28;45536;-71
2023/05/16 01:30:12;;;;;;;;;1.00;0.00;;;;;;;;4975601;28;45285;-71
2023/05/16 01:32:37;;;;;;;;;1.75;1.00;;;;;;;;4975746;28;45523;-71
2023/05/16 01:35:02;;;;;;;;;2.25;2.25;;;;;;;;4975746;28;45334;-72
2023/05/16 01:37:34;;;;;;;;;0.00;0.00;;;;;;;;4975399;28;45377;-72
2023/05/16 01:40:04;;;;;;;;;0.00;0.00;;;;;;;;4975682;28;45484;-71
2023/05/16 01:42:31;;;;;;;;;0.75;0.00;;;;;;;;4975362;28;46237;-71
2023/05/16 01:45:13;;;;;;;;;2.75;1.00;;;;;;;;4976005;28;45423;-71
2023/05/16 01:47:40;;;;;;;;;0.00;0.00;;;;;;;;4975039;28;45314;-71
2023/05/16 01:50:05;;;;;;;;;0.25;0.25;;;;;;;;4975290;28;45492;-71
2023/05/16 01:52:36;;;;;;;;;1.00;1.00;;;;;;;;4973513;28;47613;-71
2023/05/16 01:55:03;;;;;;;;;0.25;0.25;;;;;;;;4976014;28;45404;-71
2023/05/16 01:57:28;;;;;;;;;0.75;0.75;;;;;;;;4975796;28;45388;-72
2023/05/16 01:59:54;;;;;;;;;2.75;1.00;;;;;;;;4975845;28;45296;-70
2023/05/16 02:02:19;;;;;;;;;1.00;1.00;;;;;;;;4974895;28;47145;-71
2023/05/16 02:04:45;;;;;;;;;1.75;1.00;;;;;;;;4975398;28;45275;-71
2023/05/16 02:07:10;;;;;;;;;0.00;0.00;;;;;;;;4974619;28;45381;-71
2023/05/16 02:09:36;;;;;;;;;0.00;0.00;;;;;;;;4975740;28;45393;-71
2023/05/16 02:12:01;;;;;;;;;3.00;1.75;;;;;;;;4975484;28;45921;-71
2023/05/16 02:14:26;;;;;;;;;0.50;0.50;;;;;;;;4975701;28;45707;-71
2023/05/16 02:16:52;;;;;;;;;3.25;1.25;;;;;;;;4975427;28;45567;-71
2023/05/16 02:19:17;;;;;;;;;2.00;0.75;;;;;;;;4975420;28;45451;-70
2023/05/16 02:21:42;;;;;;;;;1.50;1.00;;;;;;;;4976184;28;45739;-71
2023/05/16 02:24:07;;;;;;;;;2.00;1.00;;;;;;;;4993279;28;45546;-70
2023/05/16 02:26:33;;;;;;;;;0.75;0.75;;;;;;;;4993915;28;45451;-72
2023/05/16 02:28:58;;;;;;;;;2.00;1.00;;;;;;;;4991780;28;45517;-70
2023/05/16 02:31:30;;;;;;;;;2.00;1.00;;;;;;;;4975006;28;47080;-70
2023/05/16 02:33:57;;;;;;;;;1.00;1.00;;;;;;;;4975006;28;45443;-69
2023/05/16 02:36:22;;;;;;;;;2.25;2.00;;;;;;;;4975426;28;45437;-71
2023/05/16 02:38:47;;;;;;;;;1.00;1.00;;;;;;;;4974926;28;45470;-71
2023/05/16 02:41:13;;;;;;;;;3.25;1.00;;;;;;;;4973983;28;45380;-71
2023/05/16 02:43:38;;;;;;;;;4.00;0.75;;;;;;;;4973855;28;45729;-71
2023/05/16 02:46:03;;;;;;;;;0.75;0.75;;;;;;;;4975744;28;45620;-72
2023/05/16 02:48:29;;;;;;;;;1.00;1.00;;;;;;;;4975106;28;45553;-70
2023/05/16 02:50:54;;;;;;;;;1.00;1.00;;;;;;;;4975426;28;46049;-72
2023/05/16 02:53:19;;;;;;;;;1.00;1.00;;;;;;;;4975291;28;45411;-71
2023/05/16 02:55:45;;;;;;;;;3.50;1.25;;;;;;;;4975487;28;45509;-70
2023/05/16 02:58:10;;;;;;;;;1.00;0.00;;;;;;;;4975099;28;45504;-69
2023/05/16 03:00:36;;;;;;;;;2.00;2.00;;;;;;;;4974813;28;46924;-70
2023/05/16 03:03:01;;;;;;;;;1.00;1.00;;;;;;;;4974204;28;45409;-70
2023/05/16 03:05:26;;;;;;;;;1.50;1.00;;;;;;;;4974875;28;45437;-70
2023/05/16 03:07:51;;;;;;;;;1.25;1.00;;;;;;;;4975053;28;45511;-70
2023/05/16 03:10:17;;;;;;;;;2.25;1.00;;;;;;;;4974706;28;45943;-69
2023/05/16 03:12:42;;;;;;;;;2.00;1.00;;;;;;;;4974234;28;45430;-70
2023/05/16 03:15:08;;;;;;;;;2.00;2.00;;;;;;;;4977074;28;45332;-71
2023/05/16 03:17:33;;;;;;;;;2.25;2.25;;;;;;;;4977687;28;45393;-70
2023/05/16 03:19:58;;;;;;;;;1.50;1.00;;;;;;;;4977712;28;45817;-70
2023/05/16 03:22:24;;;;;;;;;4.75;2.00;;;;;;;;4984118;28;45351;-69
2023/05/16 03:24:49;;;;;;;;;2.25;1.00;;;;;;;;4997476;28;45419;-70
2023/05/16 03:27:14;;;;;;;;;0.75;0.75;;;;;;;;4987917;28;45380;-70
2023/05/16 03:29:39;;;;;;;;;3.50;1.00;;;;;;;;4976078;28;47383;-70
2023/05/16 03:32:05;;;;;;;;;2.50;1.25;;;;;;;;4977375;28;45301;-70
2023/05/16 03:34:30;;;;;;;;;6.00;2.00;;;;;;;;4977946;28;45358;-70
2023/05/16 03:36:55;;;;;;;;;1.00;1.00;;;;;;;;4977772;28;45652;-70
2023/05/16 03:39:20;;;;;;;;;2.00;2.00;;;;;;;;4977657;28;45649;-70
2023/05/16 03:41:46;;;;;;;;;3.00;1.00;;;;;;;;4977456;28;45354;-71
2023/05/16 03:44:11;;;;;;;;;1.25;1.25;;;;;;;;4977817;28;45310;-70
2023/05/16 03:46:36;;;;;;;;;1.75;1.00;;;;;;;;4977734;28;45397;-70
2023/05/16 03:49:01;;;;;;;;;1.50;1.50;;;;;;;;4977220;28;47298;-71
2023/05/16 03:51:27;;;;;;;;;1.75;1.75;;;;;;;;4977496;28;45635;-71
2023/05/16 03:53:52;;;;;;;;;2.50;2.00;;;;;;;;4977787;28;45498;-70
2023/05/16 03:56:17;;;;;;;;;0.00;0.00;;;;;;;;4977546;28;45464;-70
2023/05/16 03:58:43;;;;;;;;;2.00;2.00;;;;;;;;4976917;28;45610;-70
2023/05/16 04:01:08;;;;;;;;;1.75;1.00;;;;;;;;4977440;28;45412;-70
2023/05/16 04:03:33;;;;;;;;;4.00;2.00;;;;;;;;4977343;28;45416;-70
2023/05/16 04:06:00;;;;;;;;;1.50;1.50;;;;;;;;4977271;28;45400;-71
2023/05/16 04:08:25;;;;;;;;;1.50;1.50;;;;;;;;4976994;28;47045;-71
2023/05/16 04:10:50;;;;;;;;;2.50;1.00;;;;;;;;4975866;28;45575;-71
2023/05/16 04:13:16;;;;;;;;;2.00;2.00;;;;;;;;4976839;28;45416;-70
2023/05/16 04:15:41;;;;;;;;;1.00;1.00;;;;;;;;4976791;28;45583;-70
2023/05/16 04:18:07;;;;;;;;;5.75;4.00;;;;;;;;4976814;28;46154;-70
2023/05/16 04:20:33;;;;;;;;;3.50;3.25;;;;;;;;4977084;28;45378;-70
2023/05/16 04:22:58;;;;;;;;;1.75;1.75;;;;;;;;4980160;28;45673;-70
2023/05/16 04:25:23;;;;;;;;;2.50;2.00;;;;;;;;4975408;28;45330;-71
2023/05/16 04:27:49;;;;;;;;;2.25;1.75;;;;;;;;4976631;28;45698;-70
2023/05/16 04:30:14;;;;;;;;;1.75;1.75;;;;;;;;4976753;28;45514;-70
2023/05/16 04:32:39;;;;;;;;;1.00;1.00;;;;;;;;4976963;28;45374;-70
2023/05/16 04:35:06;;;;;;;;;1.00;1.00;;;;;;;;4977113;28;45529;-70
2023/05/16 04:37:31;;;;;;;;;1.50;1.50;;;;;;;;4976945;28;45429;-71
2023/05/16 04:39:56;;;;;;;;;1.00;1.00;;;;;;;;4976917;28;45330;-71
2023/05/16 04:42:22;;;;;;;;;2.00;2.00;;;;;;;;4975777;28;45494;-71
2023/05/16 04:44:47;;;;;;;;;3.75;2.00;;;;;;;;4976902;28;45431;-70
2023/05/16 04:47:13;;;;;;;;;1.75;1.25;;;;;;;;4976586;28;47303;-70
2023/05/16 04:49:38;;;;;;;;;0.75;0.75;;;;;;;;4976818;28;45482;-71
2023/05/16 04:52:04;;;;;;;;;4.00;1.75;;;;;;;;4976731;28;45485;-71
2023/05/16 04:54:30;;;;;;;;;4.00;2.00;;;;;;;;4976871;28;45507;-71
2023/05/16 04:56:56;;;;;;;;;1.00;1.00;;;;;;;;4976500;28;45357;-71
2023/05/16 04:59:21;;;;;;;;;3.25;2.00;;;;;;;;4976419;28;45358;-71
2023/05/16 05:01:46;;;;;;;;;2.75;1.50;;;;;;;;4976776;28;45440;-71
2023/05/16 05:04:11;;;;;;;;;5.25;2.00;;;;;;;;4976154;28;45474;-71
2023/05/16 05:06:37;;;;;;;;;4.00;2.00;;;;;;;;4976458;28;45964;-71
2023/05/16 05:09:04;;;;;;;;;1.00;1.00;;;;;;;;4976393;28;45395;-71
2023/05/16 05:11:29;;;;;;;;;1.00;1.00;;;;;;;;4976256;28;45361;-71
2023/05/16 05:13:55;;;;;;;;;3.00;2.00;;;;;;;;4976348;28;45369;-70
2023/05/16 05:16:20;;;;;;;;;1.50;1.50;;;;;;;;4975704;28;46196;-70
2023/05/16 05:18:46;;;;;;;;;2.50;1.00;;;;;;;;4976046;28;45326;-70
2023/05/16 05:21:11;;;;;;;;;2.25;1.25;;;;;;;;4976306;28;45369;-71
2023/05/16 05:23:36;;;;;;;;;0.50;0.50;;;;;;;;4991814;28;45430;-70
2023/05/16 05:26:01;;;;;;;;;5.50;2.00;;;;;;;;4995787;28;45477;-70
2023/05/16 05:28:27;;;;;;;;;1.00;1.00;;;;;;;;4975518;28;45352;-69
2023/05/16 05:30:52;;;;;;;;;3.50;2.00;;;;;;;;4976154;28;45868;-68
2023/05/16 05:33:17;;;;;;;;;1.00;1.00;;;;;;;;4975929;28;45498;-69
2023/05/16 05:35:43;;;;;;;;;4.00;2.00;;;;;;;;4976062;28;46632;-69
2023/05/16 05:38:08;;;;;;;;;4.00;1.00;;;;;;;;4975344;28;45458;-69
2023/05/16 05:40:33;;;;;;;;;3.00;1.00;;;;;;;;4975282;28;45517;-69
2023/05/16 05:42:58;;;;;;;;;0.00;0.00;;;;;;;;4975991;28;45477;-69
2023/05/16 05:45:23;;;;;;;;;1.00;1.00;;;;;;;;4974592;28;46132;-69
2023/05/16 05:47:48;;;;;;;;;4.25;3.00;;;;;;;;4975984;28;45405;-69
2023/05/16 05:50:15;;;;;;;;;3.25;1.00;;;;;;;;4975267;28;45365;-68
2023/05/16 05:52:40;;;;;;;;;1.00;1.00;;;;;;;;4974218;28;45570;-69
2023/05/16 05:55:05;;;;;;;;;3.50;1.00;;;;;;;;4972980;28;46572;-68
2023/05/16 05:57:30;;;;;;;;;4.00;2.00;;;;;;;;4974084;28;46435;-68
2023/05/16 05:59:56;;;;;;;;;1.00;1.00;;;;;;;;4975136;28;45590;-68
2023/05/16 06:02:21;;;;;;;;;2.00;1.00;;;;;;;;4975770;28;45407;-68
2023/05/16 06:04:46;;;;;;;;;3.00;2.00;;;;;;;;4975379;28;45483;-68
2023/05/16 06:07:11;;;;;;;;;1.00;1.00;;;;;;;;4975800;28;45368;-68
2023/05/16 06:09:37;;;;;;;;;1.00;1.00;;;;;;;;4976127;28;45930;-68
2023/05/16 06:12:03;;;;;;;;;1.00;1.00;;;;;;;;4975450;28;45425;-68
2023/05/16 06:14:28;;;;;;;;;1.00;1.00;;;;;;;;4975598;28;45406;-67
2023/05/16 06:16:53;;;;;;;;;0.00;0.00;;;;;;;;4975440;28;45444;-69
2023/05/16 06:19:18;;;;;;;;;1.00;1.00;;;;;;;;4975912;28;45397;-68
2023/05/16 06:21:43;;;;;;;;;0.00;0.00;;;;;;;;4976389;28;45338;-68
2023/05/16 06:24:10;;;;;;;;;1.00;0.75;;;;;;;;4994708;28;47265;-68
2023/05/16 06:26:35;;;;;;;;;1.00;1.00;;;;;;;;4990132;28;45299;-69
2023/05/16 06:29:00;;;;;;;;;1.50;0.50;;;;;;;;4974780;28;45440;-68
2023/05/16 06:31:26;;;;;;;;;0.00;0.00;;;;;;;;4975741;28;45429;-68
2023/05/16 06:33:51;;;;;;;;;0.00;0.00;;;;;;;;4974998;28;46130;-68
2023/05/16 06:36:16;;;;;;;;;0.75;0.75;;;;;;;;4975162;28;45439;-69
2023/05/16 06:38:41;;;;;;;;;1.25;1.25;;;;;;;;4975157;28;45479;-69
2023/05/16 06:41:06;;;;;;;;;1.75;1.00;;;;;;;;4975060;28;45440;-69
2023/05/16 06:43:32;;;;;;;;;0.00;0.00;;;;;;;;4974035;28;46213;-68
2023/05/16 06:45:57;;;;;;;;;0.50;0.00;;;;;;;;4967203;28;45502;-68
2023/05/16 06:48:22;;;;;;;;;0.00;0.00;;;;;;;;4974593;28;45569;-69
2023/05/16 06:50:48;;;;;;;;;2.00;1.00;;;;;;;;4975474;28;45593;-69
2023/05/16 06:53:13;;;;;;;;;1.75;1.00;;;;;;;;4976669;28;46565;-69
2023/05/16 06:55:38;;;;;;;;;1.25;0.75;;;;;;;;4975873;28;45439;-69
2023/05/16 06:58:03;;;;;;;;;0.00;0.00;;;;;;;;4975974;28;45428;-69
2023/05/16 07:00:29;;;;;;;;;1.50;1.00;;;;;;;;4976810;28;45527;-69
2023/05/16 07:02:54;;;;;;;;;1.75;1.75;;;;;;;;4975271;28;45507;-69
2023/05/16 07:05:19;;;;;;;;;1.50;0.00;;;;;;;;4976157;28;45418;-69
2023/05/16 07:07:45;;;;;;;;;3.00;1.50;;;;;;;;4974151;28;46685;-69
2023/05/16 07:10:10;;;;;;;;;0.25;0.25;;;;;;;;4976270;28;45528;-69
2023/05/16 07:12:39;;;;;;;;;0.00;0.00;;;;;;;;4975331;28;45403;-69
2023/05/16 07:15:04;;;;;;;;;2.00;0.00;;;;;;;;4972003;28;45686;-69
2023/05/16 07:17:30;;;;;;;;;3.00;0.00;;;;;;;;4974444;28;45432;-69
2023/05/16 07:19:55;;;;;;;;;0.50;0.50;;;;;;;;4975377;28;45328;-68
2023/05/16 07:22:20;;;;;;;;;1.00;1.00;;;;;;;;4983754;28;46881;-69
2023/05/16 07:24:45;;;;;;;;;1.25;0.00;;;;;;;;4997221;28;45448;-69
2023/05/16 07:27:10;;;;;;;;;0.50;0.50;;;;;;;;4989738;28;45330;-69
2023/05/16 07:29:36;;;;;;;;;0.00;0.00;;;;;;;;4977704;28;45304;-69
2023/05/16 07:32:01;;;;;;;;;1.00;1.00;;;;;;;;4977683;28;45438;-69
2023/05/16 07:34:26;;;;;;;;;2.00;2.00;;;;;;;;4977983;28;45330;-69
2023/05/16 07:36:52;;;;;;;;;0.00;0.00;;;;;;;;4977679;28;45423;-68
2023/05/16 07:39:17;;;;;;;;;0.00;0.00;;;;;;;;4977465;28;45686;-69
2023/05/16 07:41:42;;;;;;;;;1.00;0.00;;;;;;;;4977629;28;47152;-69
2023/05/16 07:44:07;;;;;;;;;0.00;0.00;;;;;;;;4977965;28;45345;-69
2023/05/16 07:46:32;;;;;;;;;0.50;0.50;;;;;;;;4977970;28;45433;-69
2023/05/16 07:48:58;;;;;;;;;1.25;1.25;;;;;;;;4977627;28;45554;-69
2023/05/16 07:51:23;;;;;;;;;1.00;0.00;;;;;;;;4976546;28;45534;-69
2023/05/16 07:53:48;;;;;;;;;2.50;0.25;;;;;;;;4977389;28;45816;-69
2023/05/16 07:56:13;;;;;;;;;1.25;0.00;;;;;;;;4977914;28;45461;-69
2023/05/16 07:58:39;;;;;;;;;3.50;1.00;;;;;;;;4977263;28;45480;-69
2023/05/16 08:01:04;;;;;;;;;0.00;0.00;;;;;;;;4976531;28;46340;-68
2023/05/16 08:03:29;;;;;;;;;0.75;0.75;;;;;;;;4977325;28;45464;-69
2023/05/16 08:05:55;;;;;;;;;1.00;1.00;;;;;;;;4977418;28;45731;-69
2023/05/16 08:08:20;;;;;;;;;2.00;0.50;;;;;;;;4977032;28;45412;-70
2023/05/16 08:10:46;;;;;;;;;0.75;0.75;;;;;;;;4977276;28;47185;-69
2023/05/16 08:13:11;;;;;;;;;0.75;0.75;;;;;;;;4977030;28;45625;-69
2023/05/16 08:15:36;;;;;;;;;1.00;1.00;;;;;;;;4977261;28;45474;-69
2023/05/16 08:18:01;;;;;;;;;0.75;0.75;;;;;;;;4977049;28;45427;-69
2023/05/16 08:20:27;;;;;;;;;1.00;1.00;;;;;;;;4976951;28;47249;-69
2023/05/16 08:22:52;;;;;;;;;0.25;0.00;;;;;;;;4981196;28;45465;-69
2023/05/16 08:25:18;;;;;;;;;0.00;0.00;;;;;;;;4977077;28;45485;-69
2023/05/16 08:27:44;;;;;;;;;1.00;1.00;;;;;;;;4977290;28;45511;-69
2023/05/16 08:30:10;;;;;;;;;2.00;0.00;;;;;;;;4976870;28;46237;-68
2023/05/16 08:32:36;;;;;;;;;0.50;0.50;;;;;;;;4976384;28;45433;-69
2023/05/16 08:35:01;;;;;;;;;0.00;0.00;;;;;;;;4976961;28;45538;-70
2023/05/16 08:37:26;;;;;;;;;0.00;0.00;;;;;;;;4976843;28;45310;-70
2023/05/16 08:39:52;;;;;;;;;0.00;0.00;;;;;;;;4977143;28;46285;-69
2023/05/16 08:42:17;;;;;;;;;0.50;0.50;;;;;;;;4976822;28;45401;-69
2023/05/16 08:44:42;;;;;;;;;0.00;0.00;;;;;;;;4976688;28;45309;-70
2023/05/16 08:47:17;;;;;;;;;0.00;0.00;;;;;;;;4976700;28;45347;-69
2023/05/16 08:49:42;;;;;;;;;0.00;0.00;;;;;;;;4976356;28;46320;-69
2023/05/16 08:52:09;;;;;;;;;0.50;0.50;;;;;;;;4976304;28;45579;-70
2023/05/16 08:54:35;;;;;;;;;2.25;0.00;;;;;;;;4975494;28;45395;-70
2023/05/16 08:57:00;;;;;;;;;1.00;1.00;;;;;;;;4976981;28;45401;-68
2023/05/16 08:59:26;;;;;;;;;0.25;0.25;;;;;;;;4966720;28;47738;-68
2023/05/16 09:01:51;;;;;;;;;0.50;0.50;;;;;;;;4956983;28;45429;-69
2023/05/16 09:04:16;;;;;;;;;0.00;0.00;;;;;;;;4957387;28;45468;-69
2023/05/16 09:06:41;;;;;;;;;0.00;0.00;;;;;;;;4957126;28;45409;-69
2023/05/16 09:09:09;;;;;;;;;0.00;0.00;;;;;;;;4958615;28;46045;-69
2023/05/16 09:11:34;;;;;;;;;1.00;1.00;;;;;;;;4974108;28;45338;-69
2023/05/16 09:14:00;;;;;;;;;1.00;1.00;;;;;;;;4976604;28;45328;-71
2023/05/16 09:16:25;;;;;;;;;0.00;0.00;;;;;;;;4976317;28;45297;-69
2023/05/16 09:18:55;;;;;;;;;0.00;0.00;;;;;;;;4976102;28;45298;-70
2023/05/16 09:21:21;;;;;;;;;0.00;0.00;;;;;;;;4976642;28;45452;-70
2023/05/16 09:23:50;;;;;;;;;0.00;0.00;;;;;;;;4985977;28;45384;-70
2023/05/16 09:26:15;;;;;;;;;0.00;0.00;;;;;;;;4976164;28;45393;-70
2023/05/16 09:28:40;;;;;;;;;0.00;0.00;;;;;;;;4976449;28;47255;-70
2023/05/16 09:31:30;;;;;;;;;0.00;0.00;;;;;;;;4976535;28;45313;-70
2023/05/16 09:33:55;;;;;;;;;0.00;0.00;;;;;;;;4975676;28;45420;-70
2023/05/16 09:36:21;;;;;;;;;1.67;0.00;;;;;;;;4975096;28;45644;-70
2023/05/16 09:38:46;;;;;;;;;0.00;0.00;;;;;;;;4976331;28;45408;-71
2023/05/16 09:41:11;;;;;;;;;0.00;0.00;;;;;;;;4976627;28;45475;-71
2023/05/16 09:43:37;;;;;;;;;0.00;0.00;;;;;;;;4976755;28;45476;-71
2023/05/16 09:46:03;;;;;;;;;0.00;0.00;;;;;;;;4975461;28;45441;-71
2023/05/16 09:48:28;;;;;;;;;0.00;0.00;;;;;;;;4976098;28;46274;-71
2023/05/16 09:50:53;;;;;;;;;0.00;0.00;;;;;;;;4974553;28;45531;-70
2023/05/16 09:53:26;;;;;;;;;1.00;0.00;;;;;;;;4975949;28;45382;-71
2023/05/16 09:56:01;;;;;;;;;0.00;0.00;;;;;;;;4976258;28;45505;-71
2023/05/16 09:58:30;;;;;;;;;0.33;0.00;;;;;;;;4975868;28;47175;-71
2023/05/16 10:00:56;;;;;;;;;0.00;0.00;;;;;;;;4974512;28;45354;-71
2023/05/16 10:03:22;;;;;;;;;0.00;0.00;;;;;;;;4975363;28;45433;-71
2023/05/16 10:05:47;;;;;;;;;0.00;0.00;;;;;;;;4975338;28;45397;-72
2023/05/16 10:08:14;;;;;;;;;0.00;0.00;;;;;;;;4974464;28;47162;-71
2023/05/16 10:10:39;;;;;;;;;0.00;0.00;;;;;;;;4975416;28;45442;-70
2023/05/16 10:13:06;;;;;;;;;0.00;0.00;;;;;;;;4975743;28;45389;-71
2023/05/16 10:15:31;;;;;;;;;0.33;0.00;;;;;;;;4973234;28;45393;-70
2023/05/16 10:17:58;;;;;;;;;0.00;0.00;;;;;;;;4973592;28;46164;-70
2023/05/16 10:20:25;;;;;;;;;1.00;0.00;;;;;;;;4975748;28;45387;-71
2023/05/16 10:22:52;;;;;;;;;0.25;0.25;;;;;;;;4984959;28;45388;-71
2023/05/16 10:25:39;;;;;;;;;0.00;0.00;;;;;;;;4995199;28;45400;-71
2023/05/16 10:28:05;;;;;;;;;3.00;0.00;;;;;;;;4987945;28;45514;-71
2023/05/16 10:30:32;;;;;;;;;0.00;0.00;;;;;;;;4975232;28;45533;-71
2023/05/16 10:32:58;;;;;;;;;0.00;0.00;;;;;;;;4975091;28;45353;-70
2023/05/16 10:35:23;;;;;;;;;0.00;0.00;;;;;;;;4975189;28;45478;-70
2023/05/16 10:37:49;;;;;;;;;0.00;0.00;;;;;;;;4975033;28;46520;-71
2023/05/16 10:40:15;;;;;;;;;0.00;0.00;;;;;;;;4975235;28;45389;-70
2023/05/16 10:42:43;;;;;;;;;0.00;0.00;;;;;;;;4973799;28;45419;-70
2023/05/16 10:45:18;;;;;;;;;0.33;0.00;;;;;;;;4975780;28;45368;-72
2023/05/16 10:47:52;;;;;;;;;0.00;0.00;;;;;;;;4974863;28;46080;-73
2023/05/16 10:50:33;;;;;;;;;2.00;0.00;;;;;;;;4975137;28;45448;-72
2023/05/16 10:53:17;;;;;;;;;0.00;0.00;;;;;;;;4975168;28;45466;-71
2023/05/16 10:55:48;;;;;;;;;1.75;0.00;;;;;;;;4975049;28;45564;-71
2023/05/16 10:58:17;;;;;;;;;0.50;0.00;;;;;;;;4974800;28;46101;-71
2023/05/16 11:00:42;;;;;;;;;0.00;0.00;;;;;;;;4975140;28;45341;-72
2023/05/16 11:03:22;;;;;;;;;0.00;0.00;;;;;;;;4974872;28;45427;-71
2023/05/16 11:05:51;;;;;;;;;0.00;0.00;;;;;;;;4974937;28;45361;-73
2023/05/16 11:08:16;;;;;;;;;0.00;0.00;;;;;;;;4974567;28;47202;-73
2023/05/16 11:10:41;;;;;;;;;0.00;0.00;;;;;;;;4975178;28;45369;-72
2023/05/16 11:13:07;;;;;;;;;0.00;0.00;;;;;;;;4974624;28;45581;-72
2023/05/16 11:15:33;;;;;;;;;0.00;0.00;;;;;;;;4964960;28;45590;-73
2023/05/16 11:18:08;;;;;;;;;0.00;0.00;;;;;;;;4974152;28;45269;-69
2023/05/16 11:20:37;;;;;;;;;0.00;0.00;;;;;;;;4974086;28;45346;-70
2023/05/16 11:23:18;;;;;;;;;0.00;0.00;;;;;;;;4982947;28;45371;-69
2023/05/16 11:25:49;;;;;;;;;0.00;0.00;;;;;;;;4992958;28;45405;-70
2023/05/16 11:28:14;;;;;;;;;0.00;0.00;;;;;;;;4968849;28;46450;-70
2023/05/16 11:30:44;;;;;;;;;0.00;0.00;;;;;;;;4971020;28;45330;-70
2023/05/16 11:33:11;;;;;;;;;0.00;0.00;;;;;;;;4974247;28;45339;-71
2023/05/16 11:35:36;;;;;;;;;0.00;0.00;;;;;;;;4975577;28;45648;-70
2023/05/16 11:38:02;;;;;;;;;0.00;0.00;;;;;;;;4977167;28;45731;-70
2023/05/16 11:40:27;;;;;;;;;0.00;0.00;;;;;;;;4978067;28;45356;-70
2023/05/16 11:42:52;;;;;;;;;0.00;0.00;;;;;;;;4977222;28;45716;-70
2023/05/16 11:45:23;;;;;;;;;0.00;0.00;;;;;;;;4960704;28;45631;-71
2023/05/16 11:47:48;;;;;;;;;0.00;0.00;;;;;;;;4957877;28;46662;-70
2023/05/16 11:50:14;;;;;;;;;0.00;0.00;;;;;;;;4958172;28;45433;-69
2023/05/16 11:52:43;;;;;;;;;0.33;0.00;;;;;;;;4958351;28;45358;-70
2023/05/16 11:55:13;;;;;;;;;0.00;0.00;;;;;;;;4961250;28;45583;-71
2023/05/16 11:57:40;;;;;;;;;0.00;0.00;;;;;;;;4974429;28;46239;-70
2023/05/16 12:00:19;;;;;;;;;0.00;0.00;;;;;;;;4972215;28;45468;-70
2023/05/16 12:02:46;;;;;;;;;0.00;0.00;;;;;;;;4977532;28;45751;-71
2023/05/16 12:05:12;;;;;;;;;0.50;0.00;;;;;;;;4977707;28;45575;-70
2023/05/16 12:07:37;;;;;;;;;0.00;0.00;;;;;;;;4977133;28;46236;-71
2023/05/16 12:10:06;;;;;;;;;0.75;0.00;;;;;;;;4977623;28;45468;-71
2023/05/16 12:12:31;;;;;;;;;0.00;0.00;;;;;;;;4977583;28;45281;-70
2023/05/16 12:14:57;;;;;;;;;1.00;0.00;;;;;;;;4977083;28;45571;-69
2023/05/16 12:17:23;;;;;;;;;0.00;0.00;;;;;;;;4977255;28;46231;-70
2023/05/16 12:19:48;;;;;;;;;1.00;0.00;;;;;;;;4977446;28;45449;-70
2023/05/16 12:22:18;;;;;;;;;0.25;0.00;;;;;;;;4980653;28;45393;-70
2023/05/16 12:24:43;;;;;;;;;0.00;0.00;;;;;;;;4997013;28;45417;-70
2023/05/16 12:27:09;;;;;;;;;0.00;0.00;;;;;;;;4996626;28;46037;-70
2023/05/16 12:29:34;;;;;;;;;0.00;0.00;;;;;;;;4988843;28;45405;-70
2023/05/16 12:32:00;;;;;;;;;0.00;0.00;;;;;;;;4977400;28;45382;-69
2023/05/16 12:34:27;;;;;;;;;0.00;0.00;;;;;;;;4977523;28;45431;-70
2023/05/16 12:36:53;;;;;;;;;0.25;0.25;;;;;;;;4977012;28;45418;-70
2023/05/16 12:39:19;;;;;;;;;0.75;0.75;;;;;;;;4977198;28;45722;-71
2023/05/16 12:41:44;;;;;;;;;0.50;0.50;;;;;;;;4977177;28;45448;-70
2023/05/16 12:44:10;;;;;;;;;0.00;0.00;;;;;;;;4975824;28;45591;-69
2023/05/16 12:46:39;;;;;;;;;0.00;0.00;;;;;;;;4976609;28;45944;-70
2023/05/16 12:49:05;;;;;;;;;0.00;0.00;;;;;;;;4976959;28;45368;-69
2023/05/16 12:51:31;;;;;;;;;0.50;0.00;;;;;;;;4976912;28;45436;-70
2023/05/16 12:53:56;;;;;;;;;0.00;0.00;;;;;;;;4976983;28;45383;-69
2023/05/16 12:56:22;;;;;;;;;0.75;0.00;;;;;;;;4976537;28;47191;-69
2023/05/16 12:58:50;;;;;;;;;0.00;0.00;;;;;;;;4976720;28;45392;-69
2023/05/16 13:01:15;;;;;;;;;0.00;0.00;;;;;;;;4977150;28;45477;-69
2023/05/16 13:03:40;;;;;;;;;1.50;0.00;;;;;;;;4976966;28;45428;-69
2023/05/16 13:06:05;;;;;;;;;0.00;0.00;;;;;;;;4975360;28;48189;-69
2023/05/16 13:08:31;;;;;;;;;0.00;0.00;;;;;;;;4976758;28;45372;-69
2023/05/16 13:10:56;;;;;;;;;0.00;0.00;;;;;;;;4976860;28;45372;-70
2023/05/16 13:13:21;;;;;;;;;0.75;0.25;;;;;;;;4976430;28;45359;-70
2023/05/16 13:15:46;;;;;;;;;0.00;0.00;;;;;;;;4976753;28;46481;-69
2023/05/16 13:18:12;;;;;;;;;0.00;0.00;;;;;;;;4976591;28;45424;-69
2023/05/16 13:20:37;;;;;;;;;0.00;0.00;;;;;;;;4964578;28;45576;-70
2023/05/16 13:23:04;;;;;;;;;0.00;0.00;;;;;;;;4973900;28;45488;-69
2023/05/16 13:25:29;;;;;;;;;0.00;0.00;;;;;;;;4971209;28;45475;-69
2023/05/16 13:27:54;;;;;;;;;0.00;0.00;;;;;;;;4969085;28;45354;-69
2023/05/16 13:30:19;;;;;;;;;0.00;0.00;;;;;;;;4974666;28;45405;-69
2023/05/16 13:32:45;;;;;;;;;0.00;0.00;;;;;;;;4969101;28;45377;-69
2023/05/16 13:35:10;;;;;;;;;2.00;0.00;;;;;;;;4966793;28;46003;-69
2023/05/16 13:37:36;;;;;;;;;1.00;1.00;;;;;;;;4973677;28;45459;-69
2023/05/16 13:40:02;;;;;;;;;0.00;0.00;;;;;;;;4966193;28;45861;-68
2023/05/16 13:42:27;;;;;;;;;0.00;0.00;;;;;;;;4973375;28;45640;-69
2023/05/16 13:44:52;;;;;;;;;0.00;0.00;;;;;;;;4969148;28;45447;-70
2023/05/16 13:47:18;;;;;;;;;1.75;1.00;;;;;;;;4968261;28;45688;-69
2023/05/16 13:49:43;;;;;;;;;0.00;0.00;;;;;;;;4973446;28;45432;-69
2023/05/16 13:52:08;;;;;;;;;0.25;0.00;;;;;;;;4959121;28;45820;-70
2023/05/16 13:54:33;;;;;;;;;0.00;0.00;;;;;;;;4975455;28;45616;-69
2023/05/16 13:56:58;;;;;;;;;0.00;0.00;;;;;;;;4975327;28;45440;-69
2023/05/16 13:59:24;;;;;;;;;0.00;0.00;;;;;;;;4974929;28;45512;-69
2023/05/16 14:01:49;;;;;;;;;0.00;0.00;;;;;;;;4973619;28;45377;-68
2023/05/16 14:04:15;;;;;;;;;0.00;0.00;;;;;;;;4967884;28;47361;-68
2023/05/16 14:06:40;;;;;;;;;0.00;0.00;;;;;;;;4975172;28;45489;-69
2023/05/16 14:09:06;;;;;;;;;0.00;0.00;;;;;;;;4975442;28;45407;-68
2023/05/16 14:11:32;;;;;;;;;2.00;1.00;;;;;;;;4973229;28;45433;-68
2023/05/16 14:13:57;;;;;;;;;0.00;0.00;;;;;;;;4974479;28;47185;-68
2023/05/16 14:16:22;;;;;;;;;0.00;0.00;;;;;;;;4974939;28;45460;-68
2023/05/16 14:18:47;;;;;;;;;0.00;0.00;;;;;;;;4975249;28;45593;-68
2023/05/16 14:21:13;;;;;;;;;0.50;0.00;;;;;;;;4973866;28;45365;-68
2023/05/16 14:23:38;;;;;;;;;0.00;0.00;;;;;;;;4963999;28;45525;-68
2023/05/16 14:26:04;;;;;;;;;0.00;0.00;;;;;;;;4955273;28;45511;-68
2023/05/16 14:28:31;;;;;;;;;1.00;0.00;;;;;;;;4975003;28;45506;-68
2023/05/16 14:30:56;;;;;;;;;0.50;0.00;;;;;;;;4973585;28;45589;-68
2023/05/16 14:33:22;;;;;;;;;0.00;0.00;;;;;;;;4974258;28;46312;-68
2023/05/16 14:35:48;;;;;;;;;0.00;0.00;;;;;;;;4973823;28;45354;-68
2023/05/16 14:38:14;;;;;;;;;0.00;0.00;;;;;;;;4974582;28;45508;-68